createdAt,value
2023-05-15T00:01:25.250Z,12.59
2023-05-15T00:03:52.277Z,12.58
2023-05-15T00:06:19.604Z,12.54
2023-05-15T00:08:46.149Z,12.53
2023-05-15T00:11:12.912Z,12.52
2023-05-15T00:13:39.352Z,12.52
2023-05-15T00:16:10.123Z,12.51
2023-05-15T00:18:36.759Z,12.50
2023-05-15T00:21:03.438Z,12.47
2023-05-15T00:23:30.059Z,12.39
2023-05-15T00:25:56.661Z,12.38
2023-05-15T00:28:23.340Z,12.37
2023-05-15T00:30:50.096Z,12.31
2023-05-15T00:33:17.052Z,12.30
2023-05-15T00:35:43.944Z,12.29
2023-05-15T00:38:10.835Z,12.21
2023-05-15T00:40:38.848Z,12.23
2023-05-15T00:43:08.465Z,12.21
2023-05-15T00:45:36.286Z,12.13
2023-05-15T00:48:04.017Z,12.08
2023-05-15T00:50:32.744Z,12.12
2023-05-15T00:53:00.593Z,12.09
2023-05-15T00:55:29.287Z,12.04
2023-05-15T00:57:57.729Z,12.05
2023-05-15T01:00:25.079Z,12.04
2023-05-15T01:02:52.146Z,12.01
2023-05-15T01:05:18.800Z,11.99
2023-05-15T01:07:56.453Z,12.02
2023-05-15T01:10:23.209Z,11.97
2023-05-15T01:12:54.146Z,11.91
2023-05-15T01:15:20.788Z,11.84
2023-05-15T01:17:47.480Z,11.81
2023-05-15T01:20:18.404Z,11.78
2023-05-15T01:22:55.339Z,11.76
2023-05-15T01:25:41.070Z,11.75
2023-05-15T01:28:12.033Z,11.73
2023-05-15T01:30:42.004Z,11.72
2023-05-15T01:33:31.938Z,11.70
2023-05-15T01:36:07.505Z,11.60
2023-05-15T01:38:38.810Z,11.58
2023-05-15T01:41:26.922Z,11.54
2023-05-15T01:44:00.790Z,11.46
2023-05-15T01:46:31.263Z,11.32
2023-05-15T01:49:01.658Z,11.31
2023-05-15T01:51:30.877Z,11.31
2023-05-15T01:53:59.498Z,11.28
2023-05-15T01:56:27.186Z,11.31
2023-05-15T01:58:55.515Z,11.34
2023-05-15T02:01:22.898Z,11.40
2023-05-15T02:03:49.956Z,11.49
2023-05-15T02:06:16.732Z,11.53
2023-05-15T02:08:44.888Z,11.61
2023-05-15T02:11:12.291Z,11.66
2023-05-15T02:13:40.891Z,11.69
2023-05-15T02:16:07.577Z,11.74
2023-05-15T02:18:34.269Z,11.71
2023-05-15T02:21:04.037Z,11.68
2023-05-15T02:23:30.744Z,11.63
2023-05-15T02:26:25.573Z,11.61
2023-05-15T02:29:13.710Z,11.63
2023-05-15T02:32:03.679Z,11.63
2023-05-15T02:34:33.345Z,11.60
2023-05-15T02:37:01.440Z,11.56
2023-05-15T02:39:29.292Z,11.56
2023-05-15T02:41:57.654Z,11.55
2023-05-15T02:44:25.823Z,11.47
2023-05-15T02:46:54.138Z,11.47
2023-05-15T02:49:21.115Z,11.43
2023-05-15T02:51:47.598Z,11.35
2023-05-15T02:54:14.916Z,11.36
2023-05-15T02:56:41.463Z,11.32
2023-05-15T02:59:07.999Z,11.31
2023-05-15T03:01:34.492Z,11.32
2023-05-15T03:04:01.007Z,11.29
2023-05-15T03:06:27.550Z,11.31
2023-05-15T03:08:54.107Z,11.30
2023-05-15T03:11:21.461Z,11.31
2023-05-15T03:13:48.390Z,11.25
2023-05-15T03:16:14.857Z,11.24
2023-05-15T03:18:42.301Z,11.24
2023-05-15T03:21:08.959Z,11.23
2023-05-15T03:23:37.643Z,11.18
2023-05-15T03:26:04.537Z,11.17
2023-05-15T03:28:31.110Z,11.17
2023-05-15T03:30:57.612Z,11.23
2023-05-15T03:33:24.289Z,11.28
2023-05-15T03:35:52.240Z,11.28
2023-05-15T03:38:20.284Z,11.27
2023-05-15T03:40:48.367Z,11.22
2023-05-15T03:43:16.098Z,11.24
2023-05-15T03:45:42.615Z,11.19
2023-05-15T03:48:09.178Z,11.23
2023-05-15T03:50:35.784Z,11.23
2023-05-15T03:53:02.339Z,11.16
2023-05-15T03:55:28.898Z,11.15
2023-05-15T03:57:55.626Z,11.15
2023-05-15T04:00:22.353Z,11.20
2023-05-15T04:02:49.099Z,11.19
2023-05-15T04:05:15.761Z,11.16
2023-05-15T04:07:42.381Z,11.10
2023-05-15T04:10:09.396Z,11.08
2023-05-15T04:12:36.168Z,11.05
2023-05-15T04:15:23.250Z,11.09
2023-05-15T04:17:51.854Z,11.06
2023-05-15T04:20:21.067Z,11.10
2023-05-15T04:22:48.005Z,11.09
2023-05-15T04:25:16.150Z,11.08
2023-05-15T04:27:43.779Z,11.02
2023-05-15T04:30:11.708Z,11.01
2023-05-15T04:32:39.662Z,10.97
2023-05-15T04:35:11.795Z,10.95
2023-05-15T04:37:42.563Z,10.99
2023-05-15T04:40:10.268Z,10.98
2023-05-15T04:42:39.070Z,10.90
2023-05-15T04:45:07.384Z,10.93
2023-05-15T04:47:34.297Z,10.88
2023-05-15T04:50:00.969Z,10.94
2023-05-15T04:52:27.649Z,10.98
2023-05-15T04:54:55.733Z,11.02
2023-05-15T04:57:22.606Z,11.09
2023-05-15T04:59:49.278Z,11.10
2023-05-15T05:02:15.887Z,11.16
2023-05-15T05:04:43.940Z,11.10
2023-05-15T05:07:10.423Z,11.00
2023-05-15T05:09:38.974Z,10.97
2023-05-15T05:12:09.145Z,11.00
2023-05-15T05:14:36.218Z,10.97
2023-05-15T05:17:03.322Z,11.00
2023-05-15T05:19:29.902Z,11.10
2023-05-15T05:21:58.421Z,11.19
2023-05-15T05:24:25.225Z,11.18
2023-05-15T05:26:51.669Z,11.31
2023-05-15T05:29:18.151Z,11.50
2023-05-15T05:31:46.862Z,11.57
2023-05-15T05:34:13.705Z,11.66
2023-05-15T05:36:40.417Z,11.61
2023-05-15T05:39:06.915Z,11.65
2023-05-15T05:41:33.463Z,11.73
2023-05-15T05:43:59.988Z,11.85
2023-05-15T05:46:28.120Z,11.98
2023-05-15T05:48:54.752Z,12.05
2023-05-15T05:51:21.303Z,12.13
2023-05-15T05:53:47.888Z,12.02
2023-05-15T05:56:14.386Z,12.15
2023-05-15T05:58:40.977Z,12.18
2023-05-15T06:01:07.839Z,12.15
2023-05-15T06:03:34.629Z,12.31
2023-05-15T06:06:01.949Z,12.38
2023-05-15T06:08:29.877Z,12.50
2023-05-15T06:10:56.356Z,12.39
2023-05-15T06:13:23.092Z,12.21
2023-05-15T06:15:49.621Z,12.06
2023-05-15T06:18:16.383Z,12.01
2023-05-15T06:20:43.123Z,12.10
2023-05-15T06:23:09.891Z,12.17
2023-05-15T06:25:36.623Z,12.20
2023-05-15T06:28:03.079Z,12.28
2023-05-15T06:30:29.566Z,12.42
2023-05-15T06:32:56.263Z,12.56
2023-05-15T06:35:25.825Z,12.55
2023-05-15T06:37:53.431Z,12.72
2023-05-15T06:40:20.929Z,13.04
2023-05-15T06:42:47.741Z,13.35
2023-05-15T06:45:14.914Z,13.46
2023-05-15T06:47:41.493Z,13.53
2023-05-15T06:50:08.497Z,13.56
2023-05-15T06:52:35.409Z,13.73
2023-05-15T06:55:02.293Z,14.00
2023-05-15T06:57:28.840Z,14.20
2023-05-15T06:59:56.323Z,14.35
2023-05-15T07:02:23.495Z,14.24
2023-05-15T07:04:50.279Z,13.95
2023-05-15T07:07:17.136Z,14.05
2023-05-15T07:09:48.178Z,14.00
2023-05-15T07:12:15.734Z,14.00
2023-05-15T07:14:42.398Z,13.79
2023-05-15T07:17:12.364Z,13.77
2023-05-15T07:19:39.213Z,13.74
2023-05-15T07:22:05.869Z,13.73
2023-05-15T07:24:32.660Z,13.78
2023-05-15T07:26:59.441Z,14.06
2023-05-15T07:29:26.473Z,14.50
2023-05-15T07:31:53.578Z,14.45
2023-05-15T07:34:26.141Z,14.55
2023-05-15T07:36:52.898Z,14.40
2023-05-15T07:39:19.624Z,14.55
2023-05-15T07:41:47.305Z,14.59
2023-05-15T07:44:13.953Z,14.83
2023-05-15T07:46:45.758Z,15.19
2023-05-15T07:49:12.487Z,15.12
2023-05-15T07:51:40.855Z,14.85
2023-05-15T07:54:09.940Z,14.83
2023-05-15T07:56:36.688Z,14.96
2023-05-15T07:59:03.664Z,14.84
2023-05-15T08:01:31.410Z,14.64
2023-05-15T08:04:03.689Z,14.55
2023-05-15T08:06:30.376Z,14.77
2023-05-15T08:08:56.904Z,14.98
2023-05-15T08:11:23.548Z,15.14
2023-05-15T08:13:50.704Z,15.30
2023-05-15T08:16:19.690Z,15.66
2023-05-15T08:18:46.516Z,15.87
2023-05-15T08:21:13.429Z,16.06
2023-05-15T08:23:40.566Z,16.08
2023-05-15T08:26:07.637Z,16.00
2023-05-15T08:28:34.350Z,16.23
2023-05-15T08:31:00.935Z,16.36
2023-05-15T08:33:27.904Z,16.15
2023-05-15T08:35:54.748Z,16.16
2023-05-15T08:38:22.635Z,16.13
2023-05-15T08:40:55.682Z,16.27
2023-05-15T08:43:23.634Z,16.43
2023-05-15T08:45:50.558Z,16.53
2023-05-15T08:48:21.621Z,16.35
2023-05-15T08:50:49.824Z,16.33
2023-05-15T08:53:16.964Z,16.27
2023-05-15T08:55:44.485Z,16.29
2023-05-15T08:58:11.986Z,16.06
2023-05-15T09:00:38.732Z,15.96
2023-05-15T09:03:05.760Z,16.03
2023-05-15T09:05:32.862Z,16.08
2023-05-15T09:10:45.781Z,16.23
2023-05-15T09:13:13.564Z,16.42
2023-05-15T09:15:41.023Z,16.55
2023-05-15T09:18:08.920Z,16.62
2023-05-15T09:20:37.713Z,16.51
2023-05-15T09:23:06.149Z,16.55
2023-05-15T09:25:34.336Z,16.56
2023-05-15T09:28:01.242Z,16.63
2023-05-15T09:30:28.192Z,16.46
2023-05-15T09:32:56.452Z,16.53
2023-05-15T09:35:35.473Z,16.69
2023-05-15T09:38:03.855Z,16.79
2023-05-15T09:40:31.955Z,17.06
2023-05-15T09:42:59.893Z,17.48
2023-05-15T09:45:29.824Z,17.56
2023-05-15T09:47:59.839Z,17.61
2023-05-15T09:50:39.131Z,17.66
2023-05-15T09:53:06.446Z,17.73
2023-05-15T09:55:34.790Z,17.89
2023-05-15T09:58:15.705Z,17.87
2023-05-15T10:00:48.751Z,17.77
2023-05-15T10:03:19.191Z,17.61
2023-05-15T10:05:46.246Z,17.50
2023-05-15T10:08:13.047Z,17.40
2023-05-15T10:10:44.051Z,17.25
2023-05-15T10:13:13.549Z,17.04
2023-05-15T10:15:43.454Z,17.10
2023-05-15T10:18:12.256Z,17.04
2023-05-15T10:20:38.993Z,17.03
2023-05-15T10:23:10.194Z,17.01
2023-05-15T10:25:49.268Z,17.14
2023-05-15T10:28:17.640Z,17.14
2023-05-15T10:30:44.837Z,16.80
2023-05-15T10:33:11.727Z,16.80
2023-05-15T10:35:40.329Z,16.73
2023-05-15T10:38:07.655Z,16.62
2023-05-15T10:40:40.298Z,16.41
2023-05-15T10:43:09.452Z,16.08
2023-05-15T10:45:37.042Z,15.91
2023-05-15T10:48:06.360Z,15.88
2023-05-15T10:50:33.574Z,16.11
2023-05-15T10:53:00.859Z,16.28
2023-05-15T10:55:27.605Z,16.28
2023-05-15T10:57:55.188Z,16.17
2023-05-15T11:00:24.885Z,16.25
2023-05-15T11:02:57.271Z,16.19
2023-05-15T11:05:27.036Z,16.28
2023-05-15T11:08:15.933Z,16.30
2023-05-15T11:10:42.965Z,16.21
2023-05-15T11:13:09.544Z,16.13
2023-05-15T11:15:44.208Z,16.33
2023-05-15T11:18:11.686Z,16.41
2023-05-15T11:20:43.780Z,16.21
2023-05-15T11:23:10.436Z,16.18
2023-05-15T11:25:37.356Z,16.15
2023-05-15T11:28:05.259Z,16.31
2023-05-15T11:30:51.212Z,16.46
2023-05-15T11:33:19.966Z,16.31
2023-05-15T11:35:59.422Z,16.28
2023-05-15T11:38:26.770Z,16.31
2023-05-15T11:41:04.188Z,16.27
2023-05-15T11:43:30.745Z,16.07
2023-05-15T11:46:10.870Z,15.77
2023-05-15T11:48:42.525Z,15.65
2023-05-15T11:51:25.007Z,15.87
2023-05-15T11:53:53.486Z,16.10
2023-05-15T11:56:24.772Z,16.28
2023-05-15T11:59:03.992Z,16.51
2023-05-15T12:01:44.226Z,16.70
2023-05-15T12:04:15.165Z,16.56
2023-05-15T12:06:42.102Z,16.43
2023-05-15T12:09:15.028Z,16.29
2023-05-15T12:11:41.627Z,16.55
2023-05-15T12:14:12.052Z,16.69
2023-05-15T12:16:38.909Z,16.87
2023-05-15T12:19:06.355Z,16.83
2023-05-15T12:21:34.274Z,17.03
2023-05-15T12:26:34.838Z,17.58
2023-05-15T12:29:01.746Z,17.78
2023-05-15T12:31:28.580Z,17.54
2023-05-15T12:33:56.895Z,17.54
2023-05-15T12:36:23.903Z,17.86
2023-05-15T12:38:50.686Z,18.00
2023-05-15T12:41:20.072Z,18.26
2023-05-15T12:43:47.514Z,18.44
2023-05-15T12:46:15.559Z,18.52
2023-05-15T12:48:42.208Z,18.62
2023-05-15T12:51:08.962Z,18.94
2023-05-15T12:53:36.337Z,18.89
2023-05-15T12:56:06.712Z,18.86
2023-05-15T12:58:34.216Z,18.69
2023-05-15T13:01:04.297Z,18.34
2023-05-15T13:03:31.973Z,18.39
2023-05-15T13:05:59.169Z,18.03
2023-05-15T13:08:26.825Z,18.07
2023-05-15T13:10:58.457Z,17.95
2023-05-15T13:13:39.953Z,18.09
2023-05-15T13:16:08.249Z,18.56
2023-05-15T13:18:36.491Z,18.52
2023-05-15T13:21:03.928Z,18.46
2023-05-15T13:23:30.475Z,18.48
2023-05-15T13:26:00.580Z,18.59
2023-05-15T13:28:30.716Z,18.64
2023-05-15T13:31:03.726Z,18.36
2023-05-15T13:33:34.096Z,18.15
2023-05-15T13:36:01.265Z,17.83
2023-05-15T13:38:28.507Z,17.75
2023-05-15T13:40:55.309Z,17.68
2023-05-15T13:43:22.892Z,17.80
2023-05-15T13:45:55.751Z,17.67
2023-05-15T13:48:25.345Z,17.55
2023-05-15T13:50:52.539Z,17.19
2023-05-15T13:53:19.339Z,17.03
2023-05-15T13:55:46.726Z,17.04
2023-05-15T13:58:16.379Z,17.19
2023-05-15T14:00:44.242Z,17.03
2023-05-15T14:03:15.228Z,17.06
2023-05-15T14:05:45.436Z,17.01
2023-05-15T14:08:15.979Z,16.86
2023-05-15T14:10:49.369Z,16.75
2023-05-15T14:13:16.730Z,16.82
2023-05-15T14:15:43.560Z,16.99
2023-05-15T14:18:10.655Z,17.11
2023-05-15T14:20:39.995Z,17.05
2023-05-15T14:23:06.935Z,17.27
2023-05-15T14:25:33.883Z,17.14
2023-05-15T14:28:00.677Z,17.12
2023-05-15T14:30:27.994Z,17.32
2023-05-15T14:33:01.429Z,16.93
2023-05-15T14:35:28.721Z,16.80
2023-05-15T14:37:55.634Z,16.76
2023-05-15T14:40:26.078Z,16.49
2023-05-15T14:43:05.130Z,16.29
2023-05-15T14:45:35.010Z,16.12
2023-05-15T14:48:04.414Z,15.79
2023-05-15T14:50:31.306Z,15.81
2023-05-15T14:52:58.194Z,15.72
2023-05-15T14:55:24.939Z,15.79
2023-05-15T14:57:51.733Z,15.97
2023-05-15T15:00:18.588Z,15.91
2023-05-15T15:02:46.497Z,15.81
2023-05-15T15:05:17.145Z,15.55
2023-05-15T15:08:01.672Z,15.08
2023-05-15T15:10:43.035Z,15.16
2023-05-15T15:13:10.650Z,15.35
2023-05-15T15:15:37.628Z,15.50
2023-05-15T15:18:07.925Z,15.65
2023-05-15T15:20:34.769Z,15.44
2023-05-15T15:23:01.335Z,15.26
2023-05-15T15:25:28.829Z,15.23
2023-05-15T15:27:56.857Z,15.38
2023-05-15T15:30:23.544Z,15.56
2023-05-15T15:32:51.205Z,15.60
2023-05-15T15:35:17.786Z,15.57
2023-05-15T15:37:44.887Z,15.41
2023-05-15T15:40:12.203Z,15.34
2023-05-15T15:42:43.611Z,15.31
2023-05-15T15:45:11.255Z,15.07
2023-05-15T15:47:40.096Z,14.87
2023-05-15T15:50:07.318Z,14.80
2023-05-15T15:52:33.974Z,14.85
2023-05-15T15:55:00.823Z,14.70
2023-05-15T15:57:29.584Z,14.77
2023-05-15T15:59:56.583Z,14.79
2023-05-15T16:02:23.106Z,14.84
2023-05-15T16:04:50.198Z,14.74
2023-05-15T16:07:17.065Z,14.76
2023-05-15T16:09:43.679Z,14.73
2023-05-15T16:12:10.443Z,14.79
2023-05-15T16:14:37.123Z,14.71
2023-05-15T16:17:04.144Z,14.58
2023-05-15T16:19:36.110Z,14.52
2023-05-15T16:22:03.054Z,14.57
2023-05-15T16:24:32.773Z,14.38
2023-05-15T16:26:59.700Z,14.21
2023-05-15T16:29:26.588Z,14.24
2023-05-15T16:31:57.616Z,14.31
2023-05-15T16:34:25.258Z,14.22
2023-05-15T16:37:02.797Z,14.23
2023-05-15T16:39:39.284Z,14.47
2023-05-15T16:42:09.364Z,14.37
2023-05-15T16:47:16.820Z,14.23
2023-05-15T16:50:03.961Z,14.13
2023-05-15T16:52:30.936Z,14.07
2023-05-15T16:54:57.789Z,14.11
2023-05-15T16:57:24.707Z,14.29
2023-05-15T16:59:54.431Z,14.35
2023-05-15T17:02:44.717Z,14.30
2023-05-15T17:05:12.185Z,14.38
2023-05-15T17:07:43.303Z,14.35
2023-05-15T17:10:34.631Z,14.27
2023-05-15T17:13:01.575Z,14.20
2023-05-15T17:16:01.581Z,14.13
2023-05-15T17:18:29.001Z,14.10
2023-05-15T17:20:59.260Z,14.20
2023-05-15T17:23:28.825Z,14.18
2023-05-15T17:26:20.464Z,14.26
2023-05-15T17:29:11.049Z,14.25
2023-05-15T17:32:11.235Z,14.13
2023-05-15T17:34:38.204Z,14.20
2023-05-15T17:37:05.648Z,14.24
2023-05-15T17:39:35.558Z,14.10
2023-05-15T17:42:15.102Z,13.98
2023-05-15T17:44:42.158Z,13.87
2023-05-15T17:47:12.739Z,13.79
2023-05-15T17:49:39.705Z,13.68
2023-05-15T17:52:09.617Z,13.67
2023-05-15T17:54:45.648Z,13.54
2023-05-15T17:57:26.152Z,13.40
2023-05-15T17:59:53.226Z,13.27
2023-05-15T18:02:22.550Z,13.13
2023-05-15T18:04:49.616Z,13.21
2023-05-15T18:07:16.204Z,13.25
2023-05-15T18:09:45.572Z,13.30
2023-05-15T18:12:12.709Z,13.16
2023-05-15T18:14:40.607Z,13.08
2023-05-15T18:17:07.228Z,13.06
2023-05-15T18:19:33.858Z,13.13
2023-05-15T18:22:05.835Z,13.22
2023-05-15T18:24:42.022Z,13.14
2023-05-15T18:27:12.340Z,12.96
2023-05-15T18:29:39.950Z,12.87
2023-05-15T18:32:06.755Z,12.85
2023-05-15T18:34:35.022Z,12.81
2023-05-15T18:37:02.632Z,12.75
2023-05-15T18:39:29.643Z,12.80
2023-05-15T18:41:56.463Z,12.85
2023-05-15T18:44:23.630Z,12.71
2023-05-15T18:47:15.204Z,12.75
2023-05-15T18:49:48.362Z,12.64
2023-05-15T18:52:19.091Z,12.65
2023-05-15T18:54:46.144Z,12.66
2023-05-15T18:57:15.525Z,12.57
2023-05-15T18:59:42.586Z,12.53
2023-05-15T19:02:15.676Z,12.48
2023-05-15T19:04:42.213Z,12.43
2023-05-15T19:07:09.200Z,12.43
2023-05-15T19:09:36.384Z,12.50
2023-05-15T19:12:03.181Z,12.42
2023-05-15T19:14:29.844Z,12.40
2023-05-15T19:16:59.770Z,12.32
2023-05-15T19:19:27.197Z,12.29
2023-05-15T19:21:57.265Z,12.27
2023-05-15T19:24:23.878Z,12.24
2023-05-15T19:26:53.788Z,12.22
2023-05-15T19:29:20.376Z,12.21
2023-05-15T19:31:47.424Z,12.15
2023-05-15T19:34:14.184Z,12.12
2023-05-15T19:36:40.923Z,12.13
2023-05-15T19:39:07.694Z,12.05
2023-05-15T19:41:37.824Z,12.02
2023-05-15T19:44:05.385Z,11.93
2023-05-15T19:46:32.124Z,11.83
2023-05-15T19:48:58.965Z,11.72
2023-05-15T19:51:25.802Z,11.64
2023-05-15T19:53:52.559Z,11.52
2023-05-15T19:56:22.706Z,11.39
2023-05-15T19:58:49.318Z,11.37
2023-05-15T20:01:15.928Z,11.34
2023-05-15T20:03:42.647Z,11.31
2023-05-15T20:06:10.620Z,11.27
2023-05-15T20:08:37.119Z,11.23
2023-05-15T20:11:03.677Z,11.24
2023-05-15T20:13:30.892Z,11.18
2023-05-15T20:15:59.083Z,11.12
2023-05-15T20:18:26.614Z,11.06
2023-05-15T20:20:53.533Z,11.00
2023-05-15T20:23:21.094Z,10.92
2023-05-15T20:25:49.235Z,10.83
2023-05-15T20:28:17.591Z,10.82
2023-05-15T20:30:47.154Z,10.75
2023-05-15T20:33:14.296Z,10.70
2023-05-15T20:35:42.809Z,10.57
2023-05-15T20:38:10.483Z,10.58
2023-05-15T20:40:37.416Z,10.54
2023-05-15T20:43:04.545Z,10.51
2023-05-15T20:45:32.440Z,10.46
2023-05-15T20:47:59.306Z,10.46
2023-05-15T20:50:26.254Z,10.48
2023-05-15T20:52:53.104Z,10.49
2023-05-15T20:55:21.577Z,10.50
2023-05-15T20:57:49.149Z,10.52
2023-05-15T21:00:18.019Z,10.54
2023-05-15T21:02:45.751Z,10.55
2023-05-15T21:05:12.819Z,10.59
2023-05-15T21:07:39.469Z,10.53
2023-05-15T21:10:06.756Z,10.51
2023-05-15T21:12:34.705Z,10.50
2023-05-15T21:15:02.424Z,10.46
2023-05-15T21:17:29.057Z,10.48
2023-05-15T21:19:57.662Z,10.53
2023-05-15T21:22:24.949Z,10.52
2023-05-15T21:24:51.792Z,10.55
2023-05-15T21:27:18.497Z,10.54
2023-05-15T21:29:45.038Z,10.54
2023-05-15T21:32:11.664Z,10.53
2023-05-15T21:34:39.352Z,10.47
2023-05-15T21:37:05.867Z,10.47
2023-05-15T21:39:32.433Z,10.51
2023-05-15T21:41:59.015Z,10.52
2023-05-15T21:44:25.690Z,10.53
2023-05-15T21:46:52.238Z,10.54
2023-05-15T21:49:18.892Z,10.50
2023-05-15T21:51:45.353Z,10.51
2023-05-15T21:54:11.823Z,10.44
2023-05-15T21:56:38.383Z,10.43
2023-05-15T21:59:04.875Z,10.38
2023-05-15T22:01:31.452Z,10.31
2023-05-15T22:03:58.126Z,10.29
2023-05-15T22:06:24.776Z,10.31
2023-05-15T22:08:51.313Z,10.27
2023-05-15T22:11:17.910Z,10.24
2023-05-15T22:13:44.375Z,10.28
2023-05-15T22:16:11.070Z,10.27
2023-05-15T22:18:37.847Z,10.28
2023-05-15T22:21:04.395Z,10.29
2023-05-15T22:23:31.480Z,10.34
2023-05-15T22:25:58.050Z,10.35
2023-05-15T22:28:24.647Z,10.38
2023-05-15T22:30:51.129Z,10.39
2023-05-15T22:33:17.664Z,10.42
2023-05-15T22:35:44.727Z,10.39
2023-05-15T22:38:11.284Z,10.40
2023-05-15T22:40:37.833Z,10.40
2023-05-15T22:43:04.628Z,10.44
2023-05-15T22:45:31.554Z,10.45
2023-05-15T22:47:58.222Z,10.43
2023-05-15T22:50:25.032Z,10.40
2023-05-15T22:52:51.628Z,10.33
2023-05-15T22:55:18.371Z,10.30
2023-05-15T22:57:45.002Z,10.24
2023-05-15T23:00:12.140Z,10.18
2023-05-15T23:02:39.658Z,10.14
2023-05-15T23:05:07.336Z,10.07
2023-05-15T23:07:33.859Z,10.04
2023-05-15T23:10:00.395Z,10.00
2023-05-15T23:12:27.004Z,10.02
2023-05-15T23:14:53.606Z,10.06
2023-05-15T23:17:20.163Z,10.09
2023-05-15T23:19:46.609Z,10.12
2023-05-15T23:22:13.127Z,10.15
2023-05-15T23:24:39.583Z,10.12
2023-05-15T23:27:06.210Z,10.08
2023-05-15T23:29:33.889Z,10.01
2023-05-15T23:32:00.654Z,10.03
2023-05-15T23:34:28.369Z,10.01
2023-05-15T23:36:54.866Z,9.99
2023-05-15T23:39:21.322Z,9.93
2023-05-15T23:41:47.809Z,9.90
2023-05-15T23:44:14.337Z,9.88
2023-05-15T23:46:41.023Z,9.87
2023-05-15T23:49:07.543Z,9.89
2023-05-15T23:51:34.088Z,9.92
2023-05-15T23:54:00.600Z,9.90
2023-05-15T23:56:27.056Z,9.88
2023-05-15T23:58:53.509Z,9.84
